createdAt,value
2018-02-05T00:00:35.329Z,11.63
2018-02-05T00:03:01.943Z,11.60
2018-02-05T00:05:28.599Z,10.30
2018-02-05T00:07:55.243Z,10.80
2018-02-05T00:10:21.888Z,11.70
2018-02-05T00:12:48.489Z,11.57
2018-02-05T00:15:15.110Z,12.10
2018-02-05T00:17:41.801Z,10.63
2018-02-05T00:20:08.423Z,12.10
2018-02-05T00:22:35.041Z,13.27
2018-02-05T00:25:01.787Z,12.67
2018-02-05T00:27:28.407Z,11.90
2018-02-05T00:29:55.052Z,13.03
2018-02-05T00:32:21.648Z,11.27
2018-02-05T00:34:48.238Z,12.93
2018-02-05T00:37:14.865Z,12.20
2018-02-05T00:39:41.545Z,13.27
2018-02-05T00:42:08.166Z,10.67
2018-02-05T00:44:34.783Z,12.20
2018-02-05T00:47:01.404Z,11.67
2018-02-05T00:49:28.107Z,14.63
2018-02-05T00:51:54.738Z,12.37
2018-02-05T00:54:21.335Z,12.60
2018-02-05T00:56:47.944Z,14.53
2018-02-05T00:59:14.574Z,13.50
2018-02-05T01:01:41.265Z,13.30
2018-02-05T01:04:07.886Z,11.77
2018-02-05T01:06:34.503Z,14.10
2018-02-05T01:09:01.097Z,13.33
2018-02-05T01:11:27.714Z,13.40
2018-02-05T01:13:54.334Z,13.30
2018-02-05T01:16:20.937Z,13.13
2018-02-05T01:18:47.566Z,13.13
2018-02-05T01:21:14.207Z,12.90
2018-02-05T01:23:40.823Z,14.30
2018-02-05T01:26:07.424Z,13.50
2018-02-05T01:28:34.051Z,14.27
2018-02-05T01:31:00.761Z,13.63
2018-02-05T01:33:27.456Z,13.20
2018-02-05T01:35:54.037Z,11.20
2018-02-05T01:38:20.648Z,13.43
2018-02-05T01:40:47.258Z,14.03
2018-02-05T01:43:13.875Z,11.33
2018-02-05T01:45:40.484Z,14.03
2018-02-05T01:48:07.118Z,13.00
2018-02-05T01:50:33.731Z,12.87
2018-02-05T01:53:00.336Z,14.30
2018-02-05T01:55:26.965Z,13.23
2018-02-05T01:57:53.558Z,13.80
2018-02-05T02:00:20.174Z,13.63
2018-02-05T02:02:46.796Z,13.30
2018-02-05T02:05:13.391Z,13.40
2018-02-05T02:07:40.032Z,13.00
2018-02-05T02:10:06.684Z,13.20
2018-02-05T02:12:33.285Z,12.37
2018-02-05T02:14:59.911Z,12.60
2018-02-05T02:17:26.543Z,13.23
2018-02-05T02:19:53.202Z,13.37
2018-02-05T02:22:19.804Z,13.40
2018-02-05T02:24:46.418Z,12.63
2018-02-05T02:27:13.020Z,13.03
2018-02-05T02:29:39.618Z,12.90
2018-02-05T02:32:06.254Z,13.40
2018-02-05T02:34:32.907Z,13.57
2018-02-05T02:36:59.519Z,13.17
2018-02-05T02:39:26.161Z,13.40
2018-02-05T02:41:52.775Z,12.63
2018-02-05T02:44:19.389Z,13.33
2018-02-05T02:46:46.005Z,13.50
2018-02-05T02:49:12.611Z,13.77
2018-02-05T02:51:39.251Z,13.10
2018-02-05T02:54:05.887Z,14.23
2018-02-05T02:56:32.478Z,14.50
2018-02-05T02:58:59.085Z,14.77
2018-02-05T03:01:25.728Z,13.00
2018-02-05T03:03:52.344Z,13.33
2018-02-05T03:06:18.997Z,13.90
2018-02-05T03:08:45.636Z,13.97
2018-02-05T03:11:12.268Z,12.87
2018-02-05T03:13:38.909Z,12.77
2018-02-05T03:16:05.538Z,13.43
2018-02-05T03:18:32.233Z,14.50
2018-02-05T03:20:58.819Z,14.63
2018-02-05T03:23:25.462Z,14.53
2018-02-05T03:25:52.105Z,15.30
2018-02-05T03:28:18.710Z,14.10
2018-02-05T03:30:45.328Z,14.50
2018-02-05T03:33:11.966Z,15.03
2018-02-05T03:35:38.542Z,13.50
2018-02-05T03:38:05.210Z,14.00
2018-02-05T03:40:31.893Z,13.13
2018-02-05T03:42:58.487Z,13.73
2018-02-05T03:45:25.124Z,13.97
2018-02-05T03:47:51.752Z,13.97
2018-02-05T03:50:18.380Z,15.30
2018-02-05T03:52:45.012Z,14.03
2018-02-05T03:55:11.698Z,13.40
2018-02-05T03:57:38.312Z,14.60
2018-02-05T04:00:04.932Z,13.73
2018-02-05T04:02:31.539Z,14.43
2018-02-05T04:04:58.149Z,14.27
2018-02-05T04:07:24.762Z,15.07
2018-02-05T04:09:51.380Z,14.07
2018-02-05T04:12:18.010Z,13.17
2018-02-05T04:14:44.706Z,13.87
2018-02-05T04:17:11.352Z,14.80
2018-02-05T04:19:37.978Z,13.90
2018-02-05T04:22:04.570Z,13.13
2018-02-05T04:24:31.185Z,12.37
2018-02-05T04:26:57.812Z,14.67
2018-02-05T04:29:24.402Z,14.50
2018-02-05T04:31:51.012Z,14.13
2018-02-05T04:34:17.690Z,13.30
2018-02-05T04:36:44.393Z,13.67
2018-02-05T04:39:11.029Z,13.93
2018-02-05T04:41:37.652Z,13.47
2018-02-05T04:44:04.279Z,14.53
2018-02-05T04:46:30.874Z,15.07
2018-02-05T04:48:57.495Z,13.40
2018-02-05T04:51:24.137Z,13.97
2018-02-05T04:53:50.864Z,13.37
2018-02-05T04:56:17.480Z,14.03
2018-02-05T04:58:44.090Z,13.63
2018-02-05T05:01:10.754Z,14.37
2018-02-05T05:03:37.375Z,14.23
2018-02-05T05:06:03.989Z,13.93
2018-02-05T05:08:30.591Z,13.57
2018-02-05T05:10:57.242Z,14.40
2018-02-05T05:13:23.909Z,14.20
2018-02-05T05:15:50.528Z,14.43
2018-02-05T05:18:17.271Z,14.93
2018-02-05T05:20:44.261Z,15.10
2018-02-05T05:23:10.903Z,14.83
2018-02-05T05:25:37.583Z,15.60
2018-02-05T05:28:04.203Z,14.23
2018-02-05T05:30:31.029Z,15.40
2018-02-05T05:32:57.651Z,15.50
2018-02-05T05:35:24.311Z,13.00
2018-02-05T05:37:50.930Z,13.90
2018-02-05T05:40:17.548Z,14.63
2018-02-05T05:42:44.180Z,15.13
2018-02-05T05:45:10.783Z,15.50
2018-02-05T05:47:37.462Z,13.07
2018-02-05T05:50:04.097Z,14.53
2018-02-05T05:52:31.556Z,14.70
2018-02-05T05:54:58.175Z,14.07
2018-02-05T05:57:24.847Z,14.63
2018-02-05T05:59:51.439Z,15.47
2018-02-05T06:02:18.054Z,14.80
2018-02-05T06:04:44.699Z,13.27
2018-02-05T06:07:11.282Z,13.93
2018-02-05T06:09:38.006Z,13.87
2018-02-05T06:12:04.667Z,14.30
2018-02-05T06:14:31.293Z,13.40
2018-02-05T06:16:57.910Z,14.43
2018-02-05T06:19:24.574Z,13.30
2018-02-05T06:21:51.189Z,13.30
2018-02-05T06:24:17.828Z,14.43
2018-02-05T06:26:44.640Z,15.10
2018-02-05T06:29:11.304Z,13.70
2018-02-05T06:31:37.960Z,13.43
2018-02-05T06:34:04.746Z,14.37
2018-02-05T06:36:31.468Z,14.87
2018-02-05T06:39:03.210Z,13.90
2018-02-05T06:41:30.024Z,12.90
2018-02-05T06:43:57.066Z,13.83
2018-02-05T06:46:23.909Z,15.40
2018-02-05T06:48:50.876Z,12.73
2018-02-05T06:51:23.505Z,15.57
2018-02-05T06:53:57.204Z,13.77
2018-02-05T06:58:57.411Z,14.00
2018-02-05T07:01:24.146Z,15.03
2018-02-05T07:03:50.885Z,13.10
2018-02-05T07:06:19.547Z,12.37
2018-02-05T07:08:50.287Z,13.20
2018-02-05T07:11:18.123Z,15.50
2018-02-05T07:13:45.608Z,14.40
2018-02-05T07:16:20.369Z,13.60
2018-02-05T07:18:49.006Z,13.20
2018-02-05T07:21:15.848Z,14.07
2018-02-05T07:23:45.788Z,14.07
2018-02-05T07:26:12.807Z,15.37
2018-02-05T07:28:40.470Z,15.67
2018-02-05T07:31:07.191Z,13.00
2018-02-05T07:33:33.851Z,13.60
2018-02-05T07:36:00.506Z,16.83
2018-02-05T07:38:27.247Z,13.73
2018-02-05T07:40:55.443Z,13.60
2018-02-05T07:43:22.534Z,13.10
2018-02-05T07:45:49.543Z,14.30
2018-02-05T07:48:16.305Z,13.67
2018-02-05T07:50:43.174Z,15.03
2018-02-05T07:53:10.263Z,14.20
2018-02-05T07:55:37.008Z,12.47
2018-02-05T07:58:03.994Z,15.13
2018-02-05T08:00:30.687Z,14.67
2018-02-05T08:02:57.692Z,14.70
2018-02-05T08:05:24.737Z,15.10
2018-02-05T08:07:54.057Z,14.50
2018-02-05T08:10:21.555Z,14.57
2018-02-05T08:12:49.977Z,15.07
2018-02-05T08:15:16.727Z,15.00
2018-02-05T08:17:43.472Z,14.93
2018-02-05T08:20:10.809Z,12.63
2018-02-05T08:22:37.706Z,14.13
2018-02-05T08:25:04.352Z,13.80
2018-02-05T08:27:31.134Z,13.70
2018-02-05T08:29:58.015Z,16.17
2018-02-05T08:32:24.740Z,12.73
2018-02-05T08:34:51.558Z,12.67
2018-02-05T08:37:18.345Z,14.23
2018-02-05T08:39:49.293Z,12.50
2018-02-05T08:42:22.917Z,14.10
2018-02-05T08:44:51.418Z,13.73
2018-02-05T08:47:18.319Z,13.17
2018-02-05T08:49:46.108Z,14.07
2018-02-05T08:52:13.405Z,13.70
2018-02-05T08:54:40.426Z,14.93
2018-02-05T08:57:09.354Z,14.50
2018-02-05T08:59:37.907Z,12.83
2018-02-05T09:02:06.630Z,14.60
2018-02-05T09:04:35.469Z,13.13
2018-02-05T09:07:02.427Z,14.27
2018-02-05T09:09:30.233Z,13.50
2018-02-05T09:11:57.194Z,11.83
2018-02-05T09:14:24.410Z,15.73
2018-02-05T09:17:00.361Z,13.40
2018-02-05T09:19:28.917Z,14.65
2018-02-05T09:21:56.080Z,12.80
2018-02-05T09:24:24.442Z,13.90
2018-02-05T09:26:55.587Z,13.83
2018-02-05T09:29:22.433Z,13.80
2018-02-05T09:31:52.688Z,14.07
2018-02-05T09:36:57.857Z,12.07
2018-02-05T09:39:27.497Z,11.80
2018-02-05T09:41:54.194Z,13.40
2018-02-05T09:44:20.927Z,12.40
2018-02-05T09:46:47.752Z,11.93
2018-02-05T09:49:14.505Z,13.40
2018-02-05T09:51:41.681Z,11.53
2018-02-05T09:54:08.718Z,10.67
2018-02-05T09:56:35.435Z,12.20
2018-02-05T09:59:02.427Z,11.97
2018-02-05T10:01:30.725Z,12.60
2018-02-05T10:03:57.306Z,12.60
2018-02-05T10:06:24.001Z,12.27
2018-02-05T10:08:51.332Z,12.80
2018-02-05T10:11:18.074Z,12.47
2018-02-05T10:13:45.327Z,11.13
2018-02-05T10:16:12.260Z,12.50
2018-02-05T10:18:40.497Z,13.30
2018-02-05T10:21:08.473Z,10.30
2018-02-05T10:23:35.836Z,10.83
2018-02-05T10:26:04.222Z,11.97
2018-02-05T10:28:31.396Z,11.73
2018-02-05T10:30:58.051Z,10.50
2018-02-05T10:33:25.169Z,10.63
2018-02-05T10:35:52.068Z,11.33
2018-02-05T10:38:18.942Z,12.53
2018-02-05T10:40:45.874Z,9.83
2018-02-05T10:43:13.222Z,11.87
2018-02-05T10:45:39.981Z,11.70
2018-02-05T10:48:07.583Z,10.60
2018-02-05T10:50:34.811Z,10.67
2018-02-05T10:53:01.490Z,10.43
2018-02-05T10:55:39.590Z,9.97
2018-02-05T10:58:07.067Z,11.00
2018-02-05T11:00:33.822Z,9.20
2018-02-05T11:03:01.057Z,10.70
2018-02-05T11:05:27.952Z,9.77
2018-02-05T11:07:55.018Z,9.90
2018-02-05T11:10:22.885Z,9.83
2018-02-05T11:12:50.705Z,8.10
2018-02-05T11:15:18.596Z,8.93
2018-02-05T11:17:46.124Z,10.17
2018-02-05T11:20:12.843Z,9.90
2018-02-05T11:22:39.612Z,9.90
2018-02-05T11:25:06.527Z,9.77
2018-02-05T11:27:33.259Z,8.13
2018-02-05T11:30:01.826Z,9.80
2018-02-05T11:32:29.187Z,8.53
2018-02-05T11:34:59.134Z,9.02
2018-02-05T11:37:27.079Z,9.60
2018-02-05T11:39:55.506Z,8.13
2018-02-05T11:42:22.879Z,8.60
2018-02-05T11:44:50.036Z,8.20
2018-02-05T11:47:17.863Z,8.40
2018-02-05T11:49:46.591Z,8.00
2018-02-05T11:52:13.243Z,7.80
2018-02-05T11:54:40.083Z,8.80
2018-02-05T11:57:06.921Z,7.90
2018-02-05T11:59:34.297Z,7.70
2018-02-05T12:02:01.948Z,8.07
2018-02-05T12:04:28.838Z,7.57
2018-02-05T12:06:56.051Z,6.73
2018-02-05T12:09:24.188Z,7.37
2018-02-05T12:11:51.226Z,5.80
2018-02-05T12:14:18.676Z,5.30
2018-02-05T12:16:45.506Z,5.93
2018-02-05T12:19:12.883Z,5.60
2018-02-05T12:21:44.220Z,5.30
2018-02-05T12:24:14.183Z,4.23
2018-02-05T12:26:42.129Z,4.30
2018-02-05T12:29:09.568Z,4.25
2018-02-05T13:15:15.935Z,3.60
2018-02-05T13:17:42.832Z,3.37
2018-02-05T13:20:09.791Z,3.40
2018-02-05T13:22:36.759Z,3.10
2018-02-05T13:25:03.396Z,3.67
2018-02-05T13:27:30.484Z,3.60
2018-02-05T13:29:57.245Z,3.50
2018-02-05T13:32:24.751Z,3.90
2018-02-05T13:34:53.202Z,4.10
2018-02-05T13:37:22.968Z,4.50
2018-02-05T13:39:50.607Z,3.93
2018-02-05T13:42:17.516Z,3.60
2018-02-05T13:44:44.380Z,3.40
2018-02-05T13:47:11.024Z,3.70
2018-02-05T13:49:38.679Z,3.53
2018-02-05T13:52:05.739Z,3.17
2018-02-05T13:54:32.431Z,3.50
2018-02-05T13:57:00.209Z,2.87
2018-02-05T13:59:27.762Z,2.80
2018-02-05T14:01:55.524Z,3.70
2018-02-05T14:04:22.449Z,3.50
2018-02-05T14:06:49.371Z,3.90
2018-02-05T14:09:16.124Z,3.70
2018-02-05T14:11:42.772Z,3.57
2018-02-05T14:14:09.480Z,4.40
2018-02-05T14:16:36.932Z,3.70
2018-02-05T14:19:16.075Z,4.40
2018-02-05T14:21:45.985Z,3.97
2018-02-05T14:24:12.596Z,4.40
2018-02-05T14:26:39.354Z,4.83
2018-02-05T14:29:06.451Z,4.70
2018-02-05T14:31:33.411Z,5.80
2018-02-05T14:34:00.315Z,9.27
2018-02-05T14:36:27.030Z,9.23
2018-02-05T14:38:54.145Z,9.50
2018-02-05T14:41:20.791Z,7.50
2018-02-05T14:43:49.399Z,10.17
2018-02-05T14:46:21.467Z,9.30
2018-02-05T14:48:50.468Z,9.37
2018-02-05T14:51:17.143Z,8.00
2018-02-05T14:53:44.258Z,9.07
2018-02-05T14:56:10.948Z,8.90
2018-02-05T14:58:37.716Z,8.37
2018-02-05T15:01:04.413Z,9.40
2018-02-05T15:03:31.576Z,8.80
2018-02-05T15:05:59.549Z,9.23
2018-02-05T15:08:32.123Z,8.67
2018-02-05T15:10:59.037Z,8.30
2018-02-05T15:13:26.517Z,7.90
2018-02-05T15:15:53.151Z,9.33
2018-02-05T15:18:20.014Z,8.30
2018-02-05T15:20:47.089Z,7.97
2018-02-05T15:23:14.227Z,7.90
2018-02-05T15:25:40.859Z,8.13
2018-02-05T15:28:07.509Z,8.37
2018-02-05T15:30:35.654Z,8.50
2018-02-05T15:33:02.690Z,9.50
2018-02-05T15:35:32.041Z,7.30
2018-02-05T15:37:58.692Z,7.70
2018-02-05T15:40:25.372Z,8.30
2018-02-05T15:42:52.343Z,8.40
2018-02-05T15:45:19.210Z,7.87
2018-02-05T15:47:45.833Z,9.20
2018-02-05T15:50:12.807Z,8.03
2018-02-05T15:52:39.607Z,8.40
2018-02-05T15:55:06.399Z,8.47
2018-02-05T15:57:33.075Z,7.70
2018-02-05T15:59:59.729Z,7.40
2018-02-05T16:02:26.681Z,6.80
2018-02-05T16:04:53.961Z,6.10
2018-02-05T16:07:21.499Z,6.97
2018-02-05T16:09:48.161Z,6.30
2018-02-05T16:12:14.896Z,6.80
2018-02-05T16:14:41.532Z,6.13
2018-02-05T16:17:08.337Z,6.23
2018-02-05T16:19:35.400Z,6.07
2018-02-05T16:22:02.931Z,5.50
2018-02-05T16:24:29.664Z,6.40
2018-02-05T16:26:56.301Z,5.70
2018-02-05T16:29:22.986Z,5.70
2018-02-05T16:31:50.799Z,5.13
2018-02-05T16:34:17.628Z,6.67
2018-02-05T16:36:44.286Z,6.20
2018-02-05T16:39:11.071Z,6.57
2018-02-05T16:41:37.786Z,6.80
2018-02-05T16:44:04.627Z,6.07
2018-02-05T16:46:31.306Z,7.20
2018-02-05T16:48:58.056Z,6.30
2018-02-05T16:51:24.855Z,6.47
2018-02-05T16:53:51.745Z,5.80
2018-02-05T16:56:18.583Z,7.50
2018-02-05T16:58:45.251Z,7.83
2018-02-05T17:01:11.866Z,8.20
2018-02-05T17:03:38.489Z,6.33
2018-02-05T17:06:05.169Z,7.00
2018-02-05T17:08:36.228Z,7.87
2018-02-05T17:11:02.918Z,7.47
2018-02-05T17:13:29.570Z,7.60
2018-02-05T17:15:56.223Z,7.43
2018-02-05T17:18:23.023Z,7.93
2018-02-05T17:20:49.615Z,7.50
2018-02-05T17:23:16.298Z,7.57
2018-02-05T17:25:42.887Z,7.40
2018-02-05T17:28:09.787Z,7.20
2018-02-05T17:30:36.428Z,7.67
2018-02-05T17:33:03.160Z,8.47
2018-02-05T17:35:29.764Z,8.17
2018-02-05T17:37:56.408Z,6.87
2018-02-05T17:40:23.262Z,8.17
2018-02-05T17:42:49.850Z,7.70
2018-02-05T17:45:16.462Z,7.63
2018-02-05T17:47:43.156Z,7.20
2018-02-05T17:50:09.896Z,7.93
2018-02-05T17:52:36.641Z,8.10
2018-02-05T17:55:03.458Z,7.60
2018-02-05T17:57:30.194Z,8.90
2018-02-05T17:59:56.936Z,8.57
2018-02-05T18:02:23.558Z,8.20
2018-02-05T18:04:50.177Z,8.20
2018-02-05T18:07:16.857Z,9.07
2018-02-05T18:09:43.562Z,8.60
2018-02-05T18:12:10.200Z,9.13
2018-02-05T18:14:36.919Z,10.77
2018-02-05T18:17:03.620Z,9.33
2018-02-05T18:19:30.289Z,9.80
2018-02-05T18:21:57.240Z,9.20
2018-02-05T18:24:23.892Z,9.97
2018-02-05T18:27:00.320Z,9.70
2018-02-05T18:29:26.960Z,9.20
2018-02-05T18:31:53.586Z,10.07
2018-02-05T18:34:20.206Z,10.17
2018-02-05T18:36:47.037Z,9.70
2018-02-05T18:39:13.654Z,10.87
2018-02-05T18:41:40.414Z,10.67
2018-02-05T18:44:07.649Z,9.77
2018-02-05T18:46:34.703Z,10.47
2018-02-05T18:49:01.640Z,10.90
2018-02-05T18:51:28.264Z,10.60
2018-02-05T18:53:54.915Z,10.57
2018-02-05T18:56:27.267Z,10.03
2018-02-05T18:58:53.937Z,10.60
2018-02-05T19:01:20.544Z,11.30
2018-02-05T19:03:47.379Z,12.63
2018-02-05T19:06:14.064Z,11.80
2018-02-05T19:08:40.669Z,11.00
2018-02-05T19:11:07.290Z,11.37
2018-02-05T19:13:33.971Z,12.50
2018-02-05T19:16:00.565Z,11.23
2018-02-05T19:18:27.225Z,12.03
2018-02-05T19:20:54.015Z,11.33
2018-02-05T19:23:20.625Z,12.20
2018-02-05T19:25:48.271Z,12.13
2018-02-05T19:28:14.890Z,11.33
2018-02-05T19:30:42.089Z,11.80
2018-02-05T19:33:09.557Z,11.07
2018-02-05T19:35:36.232Z,12.23
2018-02-05T19:38:02.908Z,11.90
2018-02-05T19:40:29.526Z,11.80
2018-02-05T19:42:56.275Z,12.77
2018-02-05T19:45:22.987Z,12.00
2018-02-05T19:47:49.979Z,13.57
2018-02-05T19:50:16.587Z,13.77
2018-02-05T19:52:43.302Z,13.60
2018-02-05T19:55:10.005Z,12.93
2018-02-05T19:57:36.714Z,12.30
2018-02-05T20:00:03.350Z,13.30
2018-02-05T20:02:30.023Z,10.97
2018-02-05T20:04:56.649Z,10.63
2018-02-05T20:07:23.664Z,11.13
2018-02-05T20:09:50.371Z,11.13
2018-02-05T20:12:17.004Z,11.67
2018-02-05T20:14:43.678Z,10.87
2018-02-05T20:17:10.469Z,11.73
2018-02-05T20:19:37.246Z,11.60
2018-02-05T20:22:03.884Z,11.90
2018-02-05T20:24:30.571Z,12.23
2018-02-05T20:26:57.286Z,11.77
2018-02-05T20:29:23.909Z,10.43
2018-02-05T20:31:50.558Z,11.20
2018-02-05T20:34:17.755Z,11.97
2018-02-05T20:36:44.397Z,12.00
2018-02-05T20:39:11.119Z,13.67
2018-02-05T20:41:37.789Z,11.00
2018-02-05T20:44:04.422Z,12.97
2018-02-05T20:46:31.099Z,12.60
2018-02-05T20:48:57.759Z,14.87
2018-02-05T20:51:24.413Z,13.87
2018-02-05T20:53:51.079Z,12.63
2018-02-05T20:56:17.778Z,13.10
2018-02-05T20:58:44.529Z,14.20
2018-02-05T21:01:11.202Z,12.80
2018-02-05T21:03:37.804Z,13.10
2018-02-05T21:06:04.394Z,14.33
2018-02-05T21:08:31.039Z,12.97
2018-02-05T21:10:57.952Z,15.00
2018-02-05T21:13:24.589Z,12.93
2018-02-05T21:15:51.418Z,14.37
2018-02-05T21:18:18.966Z,14.77
2018-02-05T21:20:46.624Z,13.97
2018-02-05T21:23:13.863Z,15.00
2018-02-05T21:25:40.711Z,15.47
2018-02-05T21:28:07.392Z,14.00
2018-02-05T21:30:34.074Z,14.00
2018-02-05T21:33:00.817Z,12.73
2018-02-05T21:35:27.930Z,13.77
2018-02-05T21:37:54.544Z,14.63
2018-02-05T21:40:22.950Z,15.40
2018-02-05T21:42:49.547Z,13.27
2018-02-05T21:45:16.199Z,14.60
2018-02-05T21:47:42.824Z,14.43
2018-02-05T21:50:09.545Z,15.67
2018-02-05T21:52:36.197Z,14.10
2018-02-05T21:55:02.882Z,14.47
2018-02-05T21:57:30.134Z,16.67
2018-02-05T21:59:56.741Z,15.13
2018-02-05T22:02:23.434Z,14.60
2018-02-05T22:04:50.121Z,16.00
2018-02-05T22:07:16.840Z,15.77
2018-02-05T22:09:43.502Z,15.90
2018-02-05T22:12:10.202Z,15.93
2018-02-05T22:14:36.839Z,15.30
2018-02-05T22:17:03.480Z,15.60
2018-02-05T22:19:30.120Z,14.90
2018-02-05T22:21:56.755Z,15.37
2018-02-05T22:24:23.713Z,15.73
2018-02-05T22:26:50.346Z,16.10
2018-02-05T22:29:16.967Z,15.73
2018-02-05T22:31:46.229Z,15.50
2018-02-05T22:34:12.863Z,14.53
2018-02-05T22:36:39.463Z,14.97
2018-02-05T22:39:06.136Z,14.70
2018-02-05T22:41:32.762Z,14.70
2018-02-05T22:43:59.419Z,14.20
2018-02-05T22:46:26.047Z,15.90
2018-02-05T22:48:52.756Z,14.50
2018-02-05T22:51:19.367Z,15.07
2018-02-05T22:53:46.001Z,15.60
2018-02-05T22:56:12.611Z,15.00
2018-02-05T22:58:39.244Z,15.73
2018-02-05T23:01:05.818Z,15.17
2018-02-05T23:03:32.468Z,14.63
2018-02-05T23:05:59.062Z,13.87
2018-02-05T23:08:25.688Z,13.30
2018-02-05T23:10:52.321Z,15.13
2018-02-05T23:13:18.956Z,16.00
2018-02-05T23:15:45.592Z,14.43
2018-02-05T23:18:12.210Z,14.97
2018-02-05T23:20:38.938Z,13.93
2018-02-05T23:23:05.540Z,15.63
2018-02-05T23:25:32.168Z,15.00
2018-02-05T23:27:58.799Z,13.17
2018-02-05T23:30:25.431Z,14.80
2018-02-05T23:32:52.010Z,15.53
2018-02-05T23:35:18.719Z,15.10
2018-02-05T23:37:45.330Z,13.80
2018-02-05T23:40:12.030Z,14.90
2018-02-05T23:42:38.641Z,15.40
2018-02-05T23:45:05.302Z,15.13
2018-02-05T23:47:31.913Z,14.73
2018-02-05T23:49:58.570Z,16.63
2018-02-05T23:52:25.181Z,14.70
2018-02-05T23:54:51.817Z,14.33
2018-02-05T23:57:18.475Z,15.80
